Fisher Golf — FUGD — position and weather

sailwx.info

Track history (hours):
 
Tides and Currents Weather Stations Pressure Air Temp Water Temp Dewpoint Dewpoint Depression Visibility Wind Speed Wind Dir Waves Ship Positions

Fisher Golf

Last reported at 2016-Jul-28 21:03 UTC. Time now 2016-Jul-29 00:09 UTC.
Position N 46°22' W 003°19'.

Length 20 m.

Type: Fishing. MMSI: 228239000.

Date/timePositionNaut miles runAvg speedWind from/ knotsBaromVisibWave heightAir tempDewpointWater temp
2016-Jul-28 21:03N 46°22' W 003°19'2 2.8
2016-Jul-28 20:25N 46°21' W 003°18'5 4.2
2016-Jul-28 19:15N 46°19' W 003°12'11 9.0
2016-Jul-28 18:04N 46°15' W 002°57'63 1.3
2016-Jul-26 18:10N 45°54' W 001°31'6 9.8
2016-Jul-26 17:33N 45°55' W 001°40'10 9.7
2016-Jul-26 16:33N 45°56' W 001°54'83 1.6
2016-Jul-24 13:08N 46°35' W 003°39'3 2.9
2016-Jul-24 12:08N 46°38' W 003°40'1 2.3
2016-Jul-24 11:33N 46°37' W 003°39'3 3.0
2016-Jul-24 10:22N 46°34' W 003°36'3 2.8
2016-Jul-24 09:20N 46°31' W 003°36'3 2.7
2016-Jul-24 08:21N 46°28' W 003°35'2 2.4
2016-Jul-24 07:33N 46°27' W 003°37'3 2.4
2016-Jul-24 06:24N 46°29' W 003°38'3 2.7
2016-Jul-24 05:28N 46°28' W 003°35'2 2.7
2016-Jul-24 04:33N 46°27' W 003°32'3 2.8
2016-Jul-24 03:29N 46°26' W 003°28'3 2.0
2016-Jul-24 02:10N 46°24' W 003°25'2 3.4
2016-Jul-24 01:32N 46°22' W 003°27'3 2.9
2016-Jul-24 00:34N 46°22' W 003°31'6 2.7
2016-Jul-23 22:16N 46°26' W 003°38'7 2.5
2016-Jul-23 19:26N 46°31' W 003°45'6 3.0
2016-Jul-23 17:26N 46°37' W 003°43'2 2.3
2016-Jul-23 16:31N 46°38' W 003°41'  
2016-Jul-20 06:24N 45°55' W 001°20'0 0.0
2016-Jul-19 23:32N 45°55' W 001°20'0 0.0
2016-Jul-19 22:18N 45°55' W 001°20'0 0.0
2016-Jul-19 20:26N 45°55' W 001°20'0 0.0
2016-Jul-19 19:33N 45°55' W 001°20'0 0.0
2016-Jul-19 18:25N 45°55' W 001°20'0 0.0
2016-Jul-19 17:33N 45°55' W 001°20'0 0.0
2016-Jul-19 16:33N 45°55' W 001°20'24 4.0
2016-Jul-19 10:33N 46°02' W 001°53'19 9.0
2016-Jul-19 08:23N 46°09' W 002°19'7 8.5
2016-Jul-19 07:33N 46°12' W 002°28'28 9.2
2016-Jul-19 04:34N 46°21' W 003°06'7 6.7
2016-Jul-19 03:33N 46°23' W 003°15'  
Track history (hours):
 
Tides and Currents Weather Stations Pressure Air Temp Water Temp Dewpoint Dewpoint Depression Visibility Wind Speed Wind Dir Waves Ship Positions

Fisher Golf

Last reported at 2016-Jul-28 21:03 UTC. Time now 2016-Jul-29 00:09 UTC.
Position N 46°22' W 003°19'.

Length 20 m.

Type: Fishing. MMSI: 228239000.

Date/timePositionNaut miles runAvg speedWind from/ knotsBaromVisibWave heightAir tempDewpointWater temp
2016-Jul-28 21:03N 46°22' W 003°19'2 2.8
2016-Jul-28 20:25N 46°21' W 003°18'5 4.2
2016-Jul-28 19:15N 46°19' W 003°12'11 9.0
2016-Jul-28 18:04N 46°15' W 002°57'63 1.3
2016-Jul-26 18:10N 45°54' W 001°31'6 9.8
2016-Jul-26 17:33N 45°55' W 001°40'10 9.7
2016-Jul-26 16:33N 45°56' W 001°54'83 1.6
2016-Jul-24 13:08N 46°35' W 003°39'3 2.9
2016-Jul-24 12:08N 46°38' W 003°40'1 2.3
2016-Jul-24 11:33N 46°37' W 003°39'3 3.0
2016-Jul-24 10:22N 46°34' W 003°36'3 2.8
2016-Jul-24 09:20N 46°31' W 003°36'3 2.7
2016-Jul-24 08:21N 46°28' W 003°35'2 2.4
2016-Jul-24 07:33N 46°27' W 003°37'3 2.4
2016-Jul-24 06:24N 46°29' W 003°38'3 2.7
2016-Jul-24 05:28N 46°28' W 003°35'2 2.7
2016-Jul-24 04:33N 46°27' W 003°32'3 2.8
2016-Jul-24 03:29N 46°26' W 003°28'3 2.0
2016-Jul-24 02:10N 46°24' W 003°25'2 3.4
2016-Jul-24 01:32N 46°22' W 003°27'3 2.9
2016-Jul-24 00:34N 46°22' W 003°31'6 2.7
2016-Jul-23 22:16N 46°26' W 003°38'7 2.5
2016-Jul-23 19:26N 46°31' W 003°45'6 3.0
2016-Jul-23 17:26N 46°37' W 003°43'2 2.3
2016-Jul-23 16:31N 46°38' W 003°41'  
2016-Jul-20 06:24N 45°55' W 001°20'0 0.0
2016-Jul-19 23:32N 45°55' W 001°20'0 0.0
2016-Jul-19 22:18N 45°55' W 001°20'0 0.0
2016-Jul-19 20:26N 45°55' W 001°20'0 0.0
2016-Jul-19 19:33N 45°55' W 001°20'0 0.0
2016-Jul-19 18:25N 45°55' W 001°20'0 0.0
2016-Jul-19 17:33N 45°55' W 001°20'0 0.0
2016-Jul-19 16:33N 45°55' W 001°20'24 4.0
2016-Jul-19 10:33N 46°02' W 001°53'19 9.0
2016-Jul-19 08:23N 46°09' W 002°19'7 8.5
2016-Jul-19 07:33N 46°12' W 002°28'28 9.2
2016-Jul-19 04:34N 46°21' W 003°06'7 6.7
2016-Jul-19 03:33N 46°23' W 003°15'  

Dump ship's entire track history